Logo AVAMET
Benvolgut visitant, si us plau, ingressa Recuperar contrasenya

Ondara

Dades diàries. Acumulats / Últims 30 dies disponibles

Data Temperatura (°C) Humitat rel. (%) Pressió rel. (hPa) Vent (km/h) Precipi-
tació (mm)
Mínima Mitjana Màxima Mínima Mitjana Màxima Mínima Mitjana Màxima Predom. Mitjana Ràfega
màxima
Mínima Mitjana Màxima Mínima Mitjana Màxima
Dades mensuals acumulades fins l'últim dia disponible
01/2018 5,6 10,5 18,9 13,7 9,9 16,4 21,8 10 48 79 985 1.008 1.022   39,0 0,0
Dades anuals acumulades fins l'últim dia disponible
2018 5,6 10,5 18,9 13,7 9,9 16,4 21,8 10 48 79 985 1.008 1.022   39,0 0,0
Últims 30 dies disponibles
17-01-2018 11,3     16,6     21,8 30 45 59 1.009 1.012 1.014 19,0 0,0
16-01-2018 7,0     14,1     21,1 35 48 61 1.011 1.013 1.015 19,0 0,0
15-01-2018 9,1     11,8     14,5 51 61 71 1.009 1.012 1.015 14,0 0,0
14-01-2018 9,5     13,2     16,9 36 52 67 1.005 1.007 1.009 26,0 0,0
13-01-2018 6,0     10,3     14,7 54 60 66 1.006 1.010 1.013 9,0 0,0
12-01-2018 10,2     13,1     16,0 10 45 79 1.003 1.008 1.012 11,0 0,0
11-01-2018 10,2     10,2     10,2 79 79 79 1.003 1.003 1.003 0,0 0,0
10-01-2018 9,2     9,6     9,9 61 65 68 1.008 1.009 1.009 5,0 0,0
09-01-2018 5,6     9,7     13,7 50 60 70 1.004 1.009 1.013 10,0 0,0
08-01-2018 6,7     9,2     11,8 60 69 77 997 1.001 1.004 11,0 0,0
07-01-2018 7,9     12,2     16,5 29 46 62 987 992 996 16,0 0,0
06-01-2018 14,1     16,5     18,9 20 48 76 985 992 999 33,0 0,0
04-01-2018 18,9     18,9     18,9 20 20 20 1.010 1.014 1.017 35,0 0,0
03-01-2018 18,9     18,9     18,9 20 20 20 1.015 1.017 1.019 29,0 0,0
02-01-2018     18,9     18,9 20 20 20 1.016 1.018 1.019 39,0 0,0
01-01-2018 13,2     16,1     18,9 20 33 46 1.016 1.019 1.022 39,0 0,0
31-12-2017 9,8     14,6     19,3 43 55 67 1.009 1.012 1.015 37,0 0,0
30-12-2017 15,4     19,5     23,6 40 51 62 1.014 1.015 1.016 19,0 0,0
29-12-2017 13,9     18,1     22,3 42 54 66 1.004 1.009 1.014 34,0 0,0
28-12-2017 12,7     16,9     21,1 44 52 59 999 1.002 1.004 38,0 0,0
27-12-2017 12,6     15,5     18,4 31 41 51 992 997 1.001 75,0 0,0
26-12-2017 8,9     13,3     17,7 40 56 72 1.002 1.007 1.011 33,0 0,0
25-12-2017 6,8     11,2     15,7 58 68 78 1.011 1.015 1.018 10,0 0,0
24-12-2017 7,9     13,2     18,5 50 66 82 1.018 1.021 1.024 19,0 0,0
23-12-2017 8,1     11,8     15,6 60 68 76 1.022 1.024 1.025 6,0 0,0
22-12-2017 6,8     11,4     17,7 10 64 75 1.021 1.023 1.025 S 2,1 9,3 0,0
21-12-2017 10,1     11,6     13,1 63 70 77 1.023 1.025 1.027 21,0 0,0
20-12-2017 10,3     12,4     14,6 54 64 73 1.019 1.022 1.024 0,0 0,0
19-12-2017 11,0     12,4     14,5 46 63 81 1.010 1.017 1.023 SSE 2,8 17,6 1,4
18-12-2017 3,1     9,1     15,0 29 46 63 1.010 1.017 1.023 22,0 0,0
Últims 13 mesos disponibles
12/2017 2,5 8,1 15,4 12,3 11,8 16,6 23,6 32 55 70 988 1.013 1.025 2,5 75,0 2,1
11/2017 6,3 10,8 16,1 14,9 13,5 19,0 22,7 34 57 82 999 1.010 1.017 42,0 30,9
10/2017 14,0 16,8 21,1 20,5 16,3 24,2 28,2 42 66 78 1.004 1.014 1.020 31,0 23,2
09/2017 12,6 17,8 24,4 22,5 20,8 27,3 35,3 38 63 81 1.001 1.012 1.021 2,5 24,0 21,1
08/2017 11,1 20,5 26,4 25,8 18,7 31,1 36,3 33 58 91 1.016 1.019 1.024 50,0 175,6
07/2017 18,4 23,1 25,9 26,9 23,3 30,7 36,0 33 49 61 1.014 1.020 1.027 27,0 0,0
06/2017 17,2 21,5 26,7 25,9 24,0 30,2 35,4 19 44 66 1.012 1.020 1.024 44,0 14,7
05/2017 10,3 17,1 23,0 21,8 20,9 26,5 31,5 30 53 77 1.007 1.020 1.031 34,0 0,0
04/2017 8,4 11,7 15,8 17,1 12,6 22,5 30,8 43 59 86 1.008 1.020 1.030 32,0 50,6
03/2017 3,7 10,9 18,7 16,7 14,4 22,6 32,4 37 60 88 1.010 1.020 1.028 51,0 164,8
02/2017 4,1 9,9 17,0 14,6 15,1 19,2 23,7 40 65 80 1.008 1.020 1.033 55,0 37,3
01/2017 0,9 7,4 12,6 12,2 9,2 16,9 23,1 34 64 85 1.012 1.020 1.028 45,0 331,6
12/2016 -1,0 9,8 14,7 13,7 14,5 17,5 21,1 49 73 90 1.012 1.025 1.036 44,0 110,5
Tots els anys disponibles
Temperatura (°C)
Humitat relativa (%)
Velocitat del vent (km/h) i direcció (°)
Pressió (hPa) i precipitació (mm)
Nota sobre les dades: s'avisa a l'usuari de la provisionalitat i no oficialitat d'aquestes dades
Logo AVAMET blanc
Llicència de Creative CommonsLa web d'AVAMET i els seus continguts estan subjectes a una llicència de
Reconeixement - No Comercial - Compartir igual
Properes estacions: Castell de Castells (AVAMET: nova estació i canvi d'ubicació), Sinarcas - La Raílla (soci)  - - - - -  Últimes estacions: Ontinyent - C. Pureza de María (soci), Albuixec (Inforatge), Petrer (Inforatge), Calp (Inforatge), Xàtiva - Ajuntament (Inforatge), El Toro - Cerrogil (soci), Altura - Masía de Uñoz (soci) - - - - - - - - - - - - Properes estacions: Castell de Castells (AVAMET: nova estació i canvi d'ubicació), Sinarcas - La Raílla (soci)  - - - - -  Últimes estacions: Ontinyent - C. Pureza de María (soci), Albuixec (Inforatge), Petrer (Inforatge), Calp (Inforatge), Xàtiva - Ajuntament (Inforatge), El Toro - Cerrogil (soci), Altura - Masía de Uñoz (soci)